Time;durP1;ratioP1;P1;durP2;ratioP2;P2;SDS_P1;SDS_P2;PMS_P1;PMS_P2;Temp;Humidity;BMP_temperature;BMP_pressure;BME280_temperature;BME280_humidity;BME280_pressure;Samples;Min_cycle;Max_cycle;Signal;HPM_P1;HPM_P2
2021/03/28 00:00:53;;;;;;;11.55;1.77;;;7.50;99.90;;;;;;5045122;28;20048;-65
2021/03/28 00:03:29;;;;;;;13.90;1.85;;;7.50;99.90;;;;;;5042923;28;20037;-65
2021/03/28 00:06:22;;;;;;;15.55;2.55;;;7.50;99.90;;;;;;5042157;28;20104;-65
2021/03/28 00:09:19;;;;;;;7.20;1.23;;;7.60;99.90;;;;;;5039361;28;20041;-65
2021/03/28 00:11:54;;;;;;;18.45;2.65;;;7.60;99.90;;;;;;5043743;28;20045;-65
2021/03/28 00:14:45;;;;;;;11.77;2.15;;;7.60;99.90;;;;;;5037863;28;20043;-65
2021/03/28 00:17:19;;;;;;;14.25;1.77;;;7.70;99.90;;;;;;5042332;28;20032;-65
2021/03/28 00:20:05;;;;;;;11.45;1.98;;;7.70;99.90;;;;;;5040576;28;20041;-65
2021/03/28 00:22:39;;;;;;;13.55;1.60;;;7.70;99.90;;;;;;5030798;28;20030;-65
2021/03/28 00:25:14;;;;;;;9.68;1.70;;;7.70;99.90;;;;;;5044927;28;20398;-65
2021/03/28 00:27:51;;;;;;;8.60;1.95;;;7.60;99.90;;;;;;5041488;28;20033;-65
2021/03/28 00:30:19;;;;;;;16.23;2.70;;;7.60;99.90;;;;;;5040251;28;20372;-65
2021/03/28 00:32:53;;;;;;;6.07;1.63;;;7.60;99.90;;;;;;5045632;28;20033;-65
2021/03/28 00:35:25;;;;;;;13.13;2.58;;;7.60;99.90;;;;;;5037538;28;20045;-64
2021/03/28 00:38:21;;;;;;;12.75;2.30;;;7.60;99.90;;;;;;5042597;28;20429;-64
2021/03/28 00:41:22;;;;;;;20.88;1.65;;;7.50;99.90;;;;;;5034987;28;20037;-65
2021/03/28 00:44:08;;;;;;;11.38;1.58;;;7.50;99.90;;;;;;5031676;28;20037;-64
2021/03/28 00:46:37;;;;;;;11.63;1.40;;;7.50;99.90;;;;;;5034544;28;20492;-65
2021/03/28 00:49:04;;;;;;;14.15;1.42;;;7.50;99.90;;;;;;5041327;28;20037;-65
2021/03/28 00:51:30;;;;;;;12.40;2.28;;;7.40;99.90;;;;;;5037890;28;20498;-65
2021/03/28 00:54:10;;;;;;;11.35;2.00;;;7.40;99.90;;;;;;5042193;28;20086;-65
2021/03/28 00:56:47;;;;;;;14.25;1.45;;;7.40;99.90;;;;;;5041252;28;20040;-65
2021/03/28 00:59:26;;;;;;;16.38;2.55;;;7.30;99.90;;;;;;5040147;28;20048;-65
2021/03/28 01:02:32;;;;;;;12.40;2.10;;;7.30;99.90;;;;;;5038220;28;20057;-65
2021/03/28 01:05:00;;;;;;;10.95;1.33;;;7.30;99.90;;;;;;4981058;28;20435;-65
2021/03/28 01:07:32;;;;;;;13.25;1.40;;;7.20;99.90;;;;;;5031896;28;20087;-65
2021/03/28 01:10:41;;;;;;;11.68;1.83;;;7.20;99.90;;;;;;5038247;28;20041;-65
2021/03/28 01:13:43;;;;;;;15.38;2.60;;;7.10;99.90;;;;;;5008498;28;20389;-65
2021/03/28 01:16:33;;;;;;;15.55;1.60;;;7.10;99.90;;;;;;5040090;28;20048;-65
2021/03/28 01:19:13;;;;;;;10.35;1.90;;;7.10;99.90;;;;;;5037827;28;20052;-65
2021/03/28 01:22:17;;;;;;;17.60;2.58;;;6.90;99.90;;;;;;5039847;28;20033;-65
2021/03/28 01:24:52;;;;;;;10.98;1.50;;;6.90;99.90;;;;;;5034024;28;20042;-64
2021/03/28 01:27:29;;;;;;;9.48;2.00;;;6.90;99.90;;;;;;5033737;28;20548;-65
2021/03/28 01:29:56;;;;;;;10.45;1.77;;;6.90;99.90;;;;;;5035016;28;20398;-65
2021/03/28 01:32:43;;;;;;;9.60;1.75;;;6.80;99.90;;;;;;5041179;28;20029;-65
2021/03/28 01:35:12;;;;;;;11.32;1.40;;;6.90;99.90;;;;;;5038226;28;20063;-65
2021/03/28 01:38:11;;;;;;;11.98;1.58;;;6.80;99.90;;;;;;5039241;28;20091;-65
2021/03/28 01:40:48;;;;;;;13.15;1.63;;;6.80;99.90;;;;;;5039927;28;20038;-65
2021/03/28 01:43:51;;;;;;;15.00;2.92;;;6.80;99.90;;;;;;5041277;28;20045;-65
2021/03/28 01:46:41;;;;;;;11.48;2.15;;;6.80;99.90;;;;;;5037346;28;20039;-65
2021/03/28 01:49:21;;;;;;;14.57;1.70;;;6.80;99.90;;;;;;5040741;28;20102;-65
2021/03/28 01:52:04;;;;;;;13.60;1.40;;;6.80;99.90;;;;;;5034862;28;20037;-65
2021/03/28 01:54:35;;;;;;;13.63;3.63;;;6.90;99.90;;;;;;5032508;28;20041;-65
2021/03/28 01:57:08;;;;;;;9.75;2.03;;;6.90;99.90;;;;;;5047839;28;20236;-65
2021/03/28 01:59:49;;;;;;;13.13;1.98;;;6.90;99.90;;;;;;5047290;28;20099;-65
2021/03/28 02:02:42;;;;;;;12.95;1.75;;;6.90;99.90;;;;;;5044189;28;20030;-64
2021/03/28 02:05:28;;;;;;;12.07;3.08;;;6.90;99.90;;;;;;5043956;28;20037;-65
2021/03/28 02:08:13;;;;;;;7.90;1.48;;;6.90;99.90;;;;;;5035587;28;20486;-65
2021/03/28 02:10:45;;;;;;;7.85;1.75;;;6.90;99.90;;;;;;5040868;28;20029;-65
2021/03/28 02:13:21;;;;;;;9.50;1.80;;;6.90;99.90;;;;;;5038356;28;20029;-65
2021/03/28 02:16:24;;;;;;;22.27;2.10;;;6.90;99.90;;;;;;5034359;28;20120;-66
2021/03/28 02:19:15;;;;;;;12.25;1.92;;;6.90;99.90;;;;;;5035361;28;20060;-64
2021/03/28 02:21:59;;;;;;;11.07;2.67;;;6.90;99.90;;;;;;5038021;28;20029;-65
2021/03/28 02:24:39;;;;;;;13.15;1.92;;;6.90;99.90;;;;;;5037334;28;20513;-65
2021/03/28 02:27:18;;;;;;;14.60;2.83;;;6.90;99.90;;;;;;5038700;28;20044;-65
2021/03/28 02:29:55;;;;;;;21.35;3.35;;;6.90;99.90;;;;;;5034576;28;20033;-65
2021/03/28 02:32:27;;;;;;;31.10;3.08;;;6.90;99.90;;;;;;5035001;28;20128;-66
2021/03/28 02:35:05;;;;;;;15.18;2.90;;;6.90;99.90;;;;;;5043276;28;20037;-65
2021/03/28 02:37:52;;;;;;;17.27;2.35;;;6.80;99.90;;;;;;5048014;28;20041;-65
2021/03/28 02:40:36;;;;;;;13.50;2.88;;;6.70;99.90;;;;;;5047502;28;20040;-65
2021/03/28 02:43:08;;;;;;;12.88;3.10;;;6.60;99.90;;;;;;5047054;28;20114;-65
2021/03/28 02:45:37;;;;;;;9.60;2.80;;;6.60;99.90;;;;;;5038924;28;20026;-65
2021/03/28 02:48:06;;;;;;;9.70;2.72;;;6.60;99.90;;;;;;5038230;28;20041;-65
2021/03/28 02:50:40;;;;;;;10.43;1.98;;;6.60;99.90;;;;;;5041925;28;20040;-65
2021/03/28 02:53:14;;;;;;;14.77;2.47;;;6.50;99.90;;;;;;5040065;28;20166;-65
2021/03/28 02:56:02;;;;;;;8.57;2.70;;;6.50;99.90;;;;;;5037642;28;20143;-65
2021/03/28 02:58:37;;;;;;;7.93;1.58;;;6.50;99.90;;;;;;5037175;28;20367;-67
2021/03/28 03:01:39;;;;;;;15.27;1.83;;;6.50;99.90;;;;;;5038684;28;20531;-65
2021/03/28 03:04:23;;;;;;;15.52;2.75;;;6.40;99.90;;;;;;5039265;28;20075;-65
2021/03/28 03:07:11;;;;;;;13.20;3.88;;;6.40;99.90;;;;;;5034608;28;20033;-65
2021/03/28 03:10:10;;;;;;;9.43;3.00;;;6.40;99.90;;;;;;5037482;28;20092;-65
2021/03/28 03:13:03;;;;;;;9.80;2.17;;;6.30;99.90;;;;;;5038297;28;20127;-65
2021/03/28 03:16:03;;;;;;;14.18;2.42;;;6.30;99.90;;;;;;5035564;28;20040;-65
2021/03/28 03:18:57;;;;;;;14.32;2.40;;;6.30;99.90;;;;;;5031220;28;20049;-64
2021/03/28 03:22:11;;;;;;;17.13;2.67;;;6.30;99.90;;;;;;5035994;28;20498;-65
2021/03/28 03:25:18;;;;;;;17.65;3.58;;;6.30;99.90;;;;;;5032501;28;20080;-65
2021/03/28 03:27:49;;;;;;;17.75;3.03;;;6.20;99.90;;;;;;4959050;28;20043;-65
2021/03/28 03:30:28;;;;;;;7.78;2.17;;;6.30;99.90;;;;;;5023619;28;20033;-64
2021/03/28 03:33:05;;;;;;;5.15;2.10;;;6.30;99.90;;;;;;5041002;28;20070;-65
2021/03/28 03:35:45;;;;;;;14.30;2.60;;;6.30;99.90;;;;;;5040322;28;20135;-65
2021/03/28 03:38:33;;;;;;;9.10;3.03;;;6.30;99.90;;;;;;5037604;28;20041;-65
2021/03/28 03:41:26;;;;;;;11.20;3.45;;;6.30;99.90;;;;;;5040551;28;20464;-65
2021/03/28 03:44:25;;;;;;;13.80;2.45;;;6.30;99.90;;;;;;5038777;28;20041;-66
2021/03/28 03:47:07;;;;;;;8.00;1.98;;;6.30;99.90;;;;;;5038470;28;20041;-64
2021/03/28 03:49:56;;;;;;;15.98;2.67;;;6.40;99.90;;;;;;5042259;28;20037;-67
2021/03/28 03:52:35;;;;;;;14.52;3.17;;;6.40;99.90;;;;;;5039894;28;20486;-64
2021/03/28 03:55:15;;;;;;;16.15;2.22;;;6.40;99.90;;;;;;5041729;28;20060;-69
2021/03/28 03:57:48;;;;;;;15.50;2.95;;;6.40;99.90;;;;;;5037651;28;20033;-64
2021/03/28 04:00:31;;;;;;;12.00;2.88;;;6.40;99.90;;;;;;5038267;28;20056;-65
2021/03/28 04:03:16;;;;;;;11.25;2.38;;;6.50;99.90;;;;;;5041954;28;20029;-65
2021/03/28 04:05:54;;;;;;;8.45;2.05;;;6.50;99.90;;;;;;5037384;28;20429;-65
2021/03/28 04:08:38;;;;;;;9.13;2.22;;;6.40;99.90;;;;;;5042543;28;20039;-65
2021/03/28 04:11:27;;;;;;;10.25;1.90;;;6.40;99.90;;;;;;5043672;28;20296;-65
2021/03/28 04:14:12;;;;;;;9.45;2.00;;;6.30;99.90;;;;;;5038666;28;20440;-65
2021/03/28 04:16:51;;;;;;;12.35;2.55;;;6.30;99.90;;;;;;5039951;28;20040;-65
2021/03/28 04:19:29;;;;;;;15.07;2.50;;;6.20;99.90;;;;;;5037626;28;20053;-66
2021/03/28 04:21:57;;;;;;;5.68;1.58;;;6.20;99.90;;;;;;5041756;28;20500;-65
2021/03/28 04:24:41;;;;;;;12.65;1.60;;;6.20;99.90;;;;;;5041814;28;20405;-65
2021/03/28 04:27:44;;;;;;;13.15;2.17;;;6.20;99.90;;;;;;5031831;28;20033;-65
2021/03/28 04:30:57;;;;;;;8.05;1.75;;;6.10;99.90;;;;;;5034844;28;20045;-65
2021/03/28 04:33:47;;;;;;;15.60;2.58;;;6.10;99.90;;;;;;5036099;28;20091;-65
2021/03/28 04:36:19;;;;;;;8.70;2.72;;;6.10;99.90;;;;;;5036841;28;20037;-64
2021/03/28 04:39:16;;;;;;;9.30;1.90;;;6.10;99.90;;;;;;5041317;28;20385;-65
2021/03/28 04:42:03;;;;;;;10.25;1.83;;;6.10;99.90;;;;;;5037135;28;20029;-65
2021/03/28 04:44:47;;;;;;;11.70;2.17;;;6.10;99.90;;;;;;5038554;28;20083;-65
2021/03/28 04:47:37;;;;;;;9.73;1.73;;;6.20;99.90;;;;;;5040952;28;20041;-64
2021/03/28 04:50:34;;;;;;;4.43;0.83;;;6.20;99.90;;;;;;5041347;28;20029;-65
2021/03/28 04:53:37;;;;;;;10.20;1.92;;;6.30;99.90;;;;;;5042514;28;20260;-65
2021/03/28 04:59:49;;;;;;;8.18;1.63;;;6.50;99.90;;;;;;5034636;28;20102;-64
2021/03/28 05:03:06;;;;;;;12.10;1.35;;;6.60;99.90;;;;;;5041132;28;20051;-64
2021/03/28 05:05:52;;;;;;;11.18;1.55;;;6.60;99.90;;;;;;5002263;28;20026;-65
2021/03/28 05:08:33;;;;;;;7.20;1.85;;;6.70;99.90;;;;;;5038574;28;20617;-65
2021/03/28 05:11:32;;;;;;;7.25;1.27;;;6.70;99.90;;;;;;5040849;28;20057;-64
2021/03/28 05:14:28;;;;;;;10.07;1.45;;;6.80;99.90;;;;;;5042474;28;20024;-65
2021/03/28 05:17:42;;;;;;;9.25;1.92;;;6.80;99.90;;;;;;5045506;28;20052;-65
2021/03/28 05:20:40;;;;;;;6.82;1.80;;;6.90;99.90;;;;;;5023885;28;20030;-65
2021/03/28 05:23:43;;;;;;;12.30;2.45;;;6.90;99.90;;;;;;5025051;28;20480;-65
2021/03/28 05:26:20;;;;;;;7.13;1.50;;;7.00;99.90;;;;;;5041481;28;20072;-65
2021/03/28 05:29:14;;;;;;;9.85;1.25;;;7.00;99.90;;;;;;5041437;28;20478;-65
2021/03/28 05:31:43;;;;;;;7.60;1.20;;;7.00;99.90;;;;;;5037999;28;20442;-65
2021/03/28 05:34:28;;;;;;;8.20;1.45;;;7.00;99.90;;;;;;5042954;28;20067;-65
2021/03/28 05:37:30;;;;;;;11.40;1.30;;;7.00;99.90;;;;;;5043764;28;20067;-65
2021/03/28 05:40:08;;;;;;;4.95;1.25;;;7.00;99.90;;;;;;5043656;28;20021;-64
2021/03/28 05:43:11;;;;;;;9.93;1.98;;;7.00;99.90;;;;;;5039316;28;20024;-64
2021/03/28 05:45:59;;;;;;;8.82;1.40;;;7.10;99.90;;;;;;5036826;28;20029;-64
2021/03/28 05:48:53;;;;;;;10.52;3.17;;;7.10;99.90;;;;;;5036657;28;20107;-66
2021/03/28 05:51:49;;;;;;;10.70;1.80;;;7.10;99.90;;;;;;5040709;28;20068;-65
2021/03/28 05:54:45;;;;;;;7.35;2.03;;;7.10;99.90;;;;;;5041170;28;20401;-66
2021/03/28 05:57:39;;;;;;;5.10;1.60;;;7.10;99.90;;;;;;5047898;28;20142;-66
2021/03/28 06:00:25;;;;;;;10.63;1.95;;;7.10;99.90;;;;;;5042334;28;20037;-65
2021/03/28 06:03:19;;;;;;;8.50;1.92;;;7.10;99.90;;;;;;5039924;28;20036;-66
2021/03/28 06:06:06;;;;;;;11.30;2.83;;;7.20;99.90;;;;;;5039686;28;20041;-65
2021/03/28 06:08:38;;;;;;;7.97;2.05;;;7.20;99.90;;;;;;5038570;28;20039;-66
2021/03/28 06:11:31;;;;;;;10.20;1.55;;;7.30;99.90;;;;;;5040932;28;20128;-65
2021/03/28 06:14:11;;;;;;;4.10;1.40;;;7.30;99.90;;;;;;5043237;28;20040;-66
2021/03/28 06:16:42;;;;;;;9.68;1.77;;;7.40;99.90;;;;;;5041474;28;20473;-66
2021/03/28 06:19:14;;;;;;;7.88;1.23;;;7.50;99.90;;;;;;5046942;28;20022;-66
2021/03/28 06:22:18;;;;;;;9.90;1.98;;;7.50;99.90;;;;;;5049678;28;20036;-69
2021/03/28 06:24:58;;;;;;;8.60;2.30;;;7.50;99.90;;;;;;5015087;28;20037;-68
2021/03/28 06:28:01;;;;;;;8.85;1.58;;;7.50;99.90;;;;;;5039111;28;20026;-66
2021/03/28 06:30:38;;;;;;;10.98;2.75;;;7.70;99.90;;;;;;5042362;28;20485;-65
2021/03/28 06:33:23;;;;;;;8.45;2.08;;;7.70;99.90;;;;;;5034650;28;20033;-66
2021/03/28 06:36:10;;;;;;;8.75;2.58;;;7.70;99.90;;;;;;5034456;28;20474;-66
2021/03/28 06:39:25;;;;;;;8.52;2.03;;;7.80;99.90;;;;;;5029208;28;20075;-66
2021/03/28 06:42:01;;;;;;;9.52;1.73;;;7.90;99.90;;;;;;5036172;28;20150;-66
2021/03/28 06:44:51;;;;;;;10.27;1.88;;;8.20;99.90;;;;;;5037476;28;20541;-66
2021/03/28 06:47:50;;;;;;;23.75;2.53;;;8.50;99.90;;;;;;5037282;28;20017;-67
2021/03/28 06:50:31;;;;;;;11.23;1.95;;;8.90;99.90;;;;;;5036594;28;20322;-66
2021/03/28 06:53:33;;;;;;;10.40;2.30;;;9.10;99.90;;;;;;5039993;28;20025;-66
2021/03/28 06:56:17;;;;;;;7.80;1.63;;;9.40;99.90;;;;;;5032898;28;20514;-66
2021/03/28 06:59:20;;;;;;;9.02;1.80;;;9.80;99.90;;;;;;5036538;28;20048;-65
2021/03/28 07:02:14;;;;;;;11.82;1.30;;;10.00;99.90;;;;;;5037159;28;20331;-66
2021/03/28 07:05:03;;;;;;;7.15;1.55;;;10.20;99.90;;;;;;5030116;28;20022;-65
2021/03/28 07:07:54;;;;;;;8.90;1.90;;;10.50;99.90;;;;;;5034026;28;20071;-67
2021/03/28 07:10:25;;;;;;;8.23;1.88;;;10.70;99.90;;;;;;5035174;28;20103;-65
2021/03/28 07:13:08;;;;;;;6.47;1.55;;;10.80;99.90;;;;;;5033291;28;20041;-66
2021/03/28 07:15:52;;;;;;;9.13;1.85;;;10.90;99.90;;;;;;5030063;28;20107;-65
2021/03/28 07:18:27;;;;;;;5.47;1.38;;;10.80;99.90;;;;;;5034324;28;20030;-66
2021/03/28 07:21:14;;;;;;;5.03;1.20;;;10.70;99.90;;;;;;5030096;28;20517;-66
2021/03/28 07:24:20;;;;;;;6.57;1.10;;;10.70;99.90;;;;;;5031224;28;20642;-66
2021/03/28 07:27:04;;;;;;;7.22;1.00;;;10.70;99.90;;;;;;5033771;28;20033;-65
2021/03/28 07:29:51;;;;;;;8.30;1.55;;;10.90;99.90;;;;;;5032996;28;20506;-66
2021/03/28 07:32:27;;;;;;;5.82;1.90;;;11.00;99.90;;;;;;5036629;28;20037;-66
2021/03/28 07:35:22;;;;;;;6.70;1.35;;;11.00;99.90;;;;;;5035427;28;20037;-64
2021/03/28 07:38:22;;;;;;;9.18;1.80;;;10.80;99.90;;;;;;5033128;28;20096;-66
2021/03/28 07:41:00;;;;;;;3.97;1.50;;;10.90;99.90;;;;;;5031176;28;20033;-66
2021/03/28 07:43:59;;;;;;;11.43;2.35;;;11.00;99.90;;;;;;5024550;28;20034;-66
2021/03/28 07:47:01;;;;;;;7.43;1.83;;;11.30;99.90;;;;;;5022896;28;20046;-66
2021/03/28 07:49:52;;;;;;;8.38;1.25;;;11.40;99.90;;;;;;5025915;28;20029;-66
2021/03/28 07:52:51;;;;;;;4.20;1.40;;;11.40;99.90;;;;;;5033499;28;20502;-66
2021/03/28 07:55:22;;;;;;;6.47;1.40;;;11.40;99.90;;;;;;5032973;28;20084;-66
2021/03/28 07:58:06;;;;;;;6.25;1.40;;;11.30;99.90;;;;;;5032945;28;20171;-66
2021/03/28 08:01:09;;;;;;;6.85;1.20;;;11.30;99.90;;;;;;5033425;28;20030;-68
2021/03/28 08:04:02;;;;;;;3.97;1.23;;;11.40;99.90;;;;;;5033552;28;20424;-66
2021/03/28 08:07:02;;;;;;;6.57;1.75;;;11.70;99.90;;;;;;5032068;28;20037;-65
2021/03/28 08:09:59;;;;;;;6.47;1.65;;;12.20;99.90;;;;;;5027427;28;20036;-67
2021/03/28 08:12:45;;;;;;;9.23;1.90;;;12.30;99.90;;;;;;5028552;28;20033;-66
2021/03/28 08:15:55;;;;;;;6.22;1.45;;;12.40;99.90;;;;;;5038081;28;20040;-65
2021/03/28 08:18:33;;;;;;;8.63;1.35;;;12.40;99.90;;;;;;5029470;28;20068;-66
2021/03/28 08:21:01;;;;;;;9.63;1.60;;;12.30;99.90;;;;;;5035311;28;20090;-66
2021/03/28 08:23:33;;;;;;;9.85;1.30;;;12.10;99.90;;;;;;5034965;28;20448;-65
2021/03/28 08:26:21;;;;;;;9.88;1.63;;;12.10;99.90;;;;;;5034726;28;20045;-64
2021/03/28 08:29:11;;;;;;;12.15;2.20;;;12.00;99.90;;;;;;5036736;28;20049;-64
2021/03/28 08:31:36;;;;;;;4.35;1.20;;;11.90;99.90;;;;;;5032159;28;20120;-65
2021/03/28 08:34:07;;;;;;;4.47;1.63;;;11.90;99.90;;;;;;5024849;28;20319;-66
2021/03/28 08:37:00;;;;;;;7.63;1.38;;;12.00;99.90;;;;;;5027455;28;20074;-65
2021/03/28 08:40:06;;;;;;;7.47;1.58;;;12.10;99.90;;;;;;5034201;28;20304;-65
2021/03/28 08:42:39;;;;;;;9.88;1.50;;;12.10;99.90;;;;;;4982721;28;20076;-64
2021/03/28 08:45:15;;;;;;;10.88;1.50;;;12.10;99.90;;;;;;5024492;28;20044;-65
2021/03/28 08:48:18;;;;;;;9.77;1.88;;;12.00;99.90;;;;;;5036465;28;20705;-65
2021/03/28 08:51:01;;;;;;;6.68;1.48;;;12.10;99.90;;;;;;5033831;28;20049;-66
2021/03/28 08:53:54;;;;;;;7.65;1.23;;;12.00;99.90;;;;;;5032210;28;20556;-66
2021/03/28 08:56:47;;;;;;;4.75;1.15;;;12.20;99.90;;;;;;5032866;28;20409;-64
2021/03/28 08:59:24;;;;;;;2.97;1.10;;;12.30;99.90;;;;;;5036298;28;20036;-67
2021/03/28 09:02:05;;;;;;;7.05;1.67;;;12.70;99.90;;;;;;5036712;28;20163;-66
2021/03/28 09:04:56;;;;;;;5.65;1.10;;;12.90;99.90;;;;;;5035765;28;20575;-65
2021/03/28 09:07:34;;;;;;;10.27;1.17;;;13.10;99.90;;;;;;5033097;28;20065;-65
2021/03/28 09:10:39;;;;;;;8.40;1.02;;;13.20;99.90;;;;;;5042341;28;20072;-66
2021/03/28 09:13:26;;;;;;;6.47;1.27;;;13.30;99.20;;;;;;5035344;28;20049;-67
2021/03/28 09:16:16;;;;;;;9.30;1.38;;;13.40;97.40;;;;;;5037156;28;20052;-64
2021/03/28 09:19:04;;;;;;;7.35;1.00;;;13.50;97.20;;;;;;5035834;28;20140;-66
2021/03/28 09:21:50;;;;;;;9.95;2.55;;;13.40;97.50;;;;;;5032529;28;20466;-67
2021/03/28 09:24:25;;;;;;;6.90;1.55;;;13.40;97.60;;;;;;5041144;28;20396;-66
2021/03/28 09:27:31;;;;;;;10.98;1.58;;;13.50;98.00;;;;;;5036706;28;20032;-67
2021/03/28 09:30:26;;;;;;;19.88;2.15;;;13.40;98.80;;;;;;5037005;28;20063;-67
2021/03/28 09:32:51;;;;;;;7.43;1.58;;;13.20;99.70;;;;;;5035074;28;20039;-67
2021/03/28 09:35:36;;;;;;;8.77;1.50;;;13.20;99.80;;;;;;5039069;28;20049;-66
2021/03/28 09:38:39;;;;;;;5.22;1.63;;;13.20;99.60;;;;;;5039338;28;20382;-66
2021/03/28 09:41:28;;;;;;;13.30;1.63;;;13.00;99.60;;;;;;5037100;28;20045;-66
2021/03/28 09:44:34;;;;;;;9.50;1.30;;;12.90;99.70;;;;;;5037583;28;20036;-66
2021/03/28 09:47:27;;;;;;;10.25;1.63;;;12.90;99.90;;;;;;5033990;28;20036;-66
2021/03/28 09:50:26;;;;;;;2.47;1.15;;;12.90;99.90;;;;;;5034139;28;20040;-67
2021/03/28 09:53:13;;;;;;;7.97;1.92;;;13.00;99.90;;;;;;5033180;28;20099;-67
2021/03/28 09:55:47;;;;;;;7.43;1.40;;;13.10;99.90;;;;;;5039511;28;20048;-67
2021/03/28 09:58:36;;;;;;;8.35;1.25;;;13.10;99.90;;;;;;5054482;28;20025;-71
2021/03/28 10:01:31;;;;;;;9.85;1.35;;;13.10;99.90;;;;;;5052015;28;20040;-65
2021/03/28 10:04:25;;;;;;;6.30;1.95;;;13.10;99.90;;;;;;5051324;28;20029;-70
2021/03/28 10:07:03;;;;;;;9.10;1.45;;;13.10;99.90;;;;;;5043146;28;20033;-66
2021/03/28 10:10:01;;;;;;;6.32;1.38;;;13.00;99.90;;;;;;5041128;28;20045;-67
2021/03/28 10:12:33;;;;;;;7.57;1.30;;;12.90;99.90;;;;;;5036538;28;20487;-67
2021/03/28 10:15:05;;;;;;;12.18;2.10;;;12.90;99.90;;;;;;5038705;28;20033;-66
2021/03/28 10:17:49;;;;;;;5.05;1.08;;;12.90;99.90;;;;;;5035883;28;20034;-66
2021/03/28 10:20:18;;;;;;;9.13;2.05;;;12.90;99.90;;;;;;5033497;28;20124;-67
2021/03/28 10:23:22;;;;;;;6.60;1.85;;;12.80;99.90;;;;;;5039777;28;20025;-66
2021/03/28 10:25:51;;;;;;;4.70;1.25;;;12.80;99.90;;;;;;5037953;28;20171;-66
2021/03/28 10:28:34;;;;;;;6.63;1.40;;;12.70;99.90;;;;;;5032977;28;20039;-66
2021/03/28 10:31:19;;;;;;;8.75;1.38;;;12.60;99.90;;;;;;5035412;28;20892;-67
2021/03/28 10:34:08;;;;;;;7.78;1.65;;;12.60;99.90;;;;;;5034202;28;20379;-65
2021/03/28 10:36:52;;;;;;;3.17;1.10;;;12.60;99.90;;;;;;5036811;28;20049;-66
2021/03/28 10:39:29;;;;;;;7.97;1.10;;;12.50;99.90;;;;;;5030284;28;20085;-66
2021/03/28 10:42:13;;;;;;;4.50;0.88;;;12.50;99.90;;;;;;5032600;28;20113;-71
2021/03/28 10:45:01;;;;;;;4.88;1.05;;;12.40;99.90;;;;;;5033963;28;20063;-66
2021/03/28 10:47:44;;;;;;;5.88;1.05;;;12.30;99.90;;;;;;5029672;28;20040;-66
2021/03/28 10:50:29;;;;;;;5.00;0.95;;;12.30;99.90;;;;;;5032175;28;20044;-65
2021/03/28 10:53:25;;;;;;;8.43;1.10;;;12.20;99.90;;;;;;5033737;28;20036;-66
2021/03/28 10:56:22;;;;;;;9.55;1.20;;;12.30;99.90;;;;;;5031572;28;20032;-66
2021/03/28 10:59:05;;;;;;;13.25;1.70;;;12.30;99.90;;;;;;5031059;28;20069;-66
2021/03/28 11:01:52;;;;;;;7.80;1.50;;;12.40;99.90;;;;;;5037833;28;20033;-66
2021/03/28 11:04:56;;;;;;;7.97;1.38;;;12.30;99.90;;;;;;5035870;28;20040;-67
2021/03/28 11:07:40;;;;;;;7.60;1.25;;;12.40;99.90;;;;;;5031193;28;20037;-66
2021/03/28 11:10:14;;;;;;;6.63;1.23;;;12.40;99.90;;;;;;5031531;28;20120;-66
2021/03/28 11:13:12;;;;;;;6.65;0.95;;;12.40;99.90;;;;;;5032645;28;20037;-65
2021/03/28 11:16:15;;;;;;;6.70;1.02;;;12.40;99.90;;;;;;5034078;28;20041;-66
2021/03/28 11:18:55;;;;;;;11.98;1.30;;;12.30;99.90;;;;;;5027070;28;20249;-67
2021/03/28 11:21:42;;;;;;;10.05;2.97;;;12.40;99.90;;;;;;5027289;28;20044;-67
2021/03/28 11:24:39;;;;;;;9.10;1.00;;;12.30;99.90;;;;;;5032428;28;20418;-64
2021/03/28 11:27:54;;;;;;;6.55;1.00;;;12.40;99.90;;;;;;5020452;28;20236;-67
2021/03/28 11:30:46;;;;;;;7.13;1.00;;;12.40;99.90;;;;;;4997806;28;20545;-66
2021/03/28 11:33:31;;;;;;;5.18;1.35;;;12.40;99.90;;;;;;5028707;28;20037;-67
2021/03/28 11:36:02;;;;;;;7.38;1.13;;;12.50;99.90;;;;;;5034165;28;20060;-68
2021/03/28 11:38:34;;;;;;;4.47;0.93;;;12.60;99.90;;;;;;5029828;28;20049;-67
2021/03/28 11:41:11;;;;;;;7.88;1.10;;;12.50;99.90;;;;;;5030311;28;20026;-67
2021/03/28 11:43:45;;;;;;;8.13;1.30;;;12.40;99.90;;;;;;5031793;28;20041;-65
2021/03/28 11:46:32;;;;;;;7.47;1.08;;;12.40;99.90;;;;;;5033427;28;20064;-67
2021/03/28 11:48:57;;;;;;;9.48;0.90;;;12.40;99.90;;;;;;5034954;28;20060;-66
2021/03/28 11:51:23;;;;;;;7.20;1.38;;;12.50;99.90;;;;;;5033815;28;20046;-66
2021/03/28 11:54:08;;;;;;;9.38;0.93;;;12.50;99.90;;;;;;5039271;28;20501;-66
2021/03/28 11:57:14;;;;;;;9.45;1.15;;;12.50;99.90;;;;;;5027249;28;20062;-66
2021/03/28 11:59:48;;;;;;;6.30;1.10;;;12.50;99.90;;;;;;5036555;28;20150;-66
2021/03/28 12:02:13;;;;;;;5.80;1.10;;;12.50;99.90;;;;;;5032070;28;20194;-67
2021/03/28 12:04:41;;;;;;;6.00;0.90;;;12.50;99.90;;;;;;5031812;28;20692;-67
2021/03/28 12:07:31;;;;;;;5.03;1.00;;;12.40;99.90;;;;;;5036313;28;20469;-67
2021/03/28 12:10:00;;;;;;;8.13;1.35;;;12.50;99.90;;;;;;5033842;28;20123;-66
2021/03/28 12:12:47;;;;;;;8.90;1.75;;;12.50;99.90;;;;;;5033947;28;20047;-66
2021/03/28 12:15:43;;;;;;;6.75;1.10;;;12.50;99.90;;;;;;5032972;28;20048;-65
2021/03/28 12:18:20;;;;;;;10.43;1.40;;;12.50;99.90;;;;;;5030548;28;20049;-67
2021/03/28 12:20:47;;;;;;;6.47;1.10;;;12.60;99.90;;;;;;5034625;28;20111;-67
2021/03/28 12:23:41;;;;;;;12.20;1.70;;;12.70;99.90;;;;;;5035422;28;20033;-64
2021/03/28 12:26:13;;;;;;;8.15;1.20;;;12.80;99.90;;;;;;5030596;28;20125;-65
2021/03/28 12:28:45;;;;;;;6.20;1.63;;;12.90;99.90;;;;;;5033794;28;20039;-66
2021/03/28 12:31:38;;;;;;;17.67;1.25;;;13.00;99.90;;;;;;5035011;28;20090;-67
2021/03/28 12:34:34;;;;;;;12.13;1.20;;;13.00;99.90;;;;;;5036651;28;20040;-66
2021/03/28 12:37:12;;;;;;;5.22;0.98;;;13.00;99.90;;;;;;5025369;28;20037;-67
2021/03/28 12:39:40;;;;;;;8.00;1.67;;;13.00;99.90;;;;;;5029564;28;20029;-67
2021/03/28 12:42:25;;;;;;;6.07;1.33;;;12.90;99.90;;;;;;5036750;28;20167;-67
2021/03/28 12:45:12;;;;;;;7.15;1.38;;;12.80;99.90;;;;;;5033270;28;20037;-67
2021/03/28 12:47:47;;;;;;;9.52;1.58;;;12.80;99.90;;;;;;5027094;28;20084;-66
2021/03/28 12:50:16;;;;;;;6.90;1.35;;;12.70;99.90;;;;;;5028905;28;20236;-67
2021/03/28 12:52:48;;;;;;;9.00;1.33;;;12.70;99.90;;;;;;5037161;28;20068;-66
2021/03/28 12:55:29;;;;;;;9.52;1.67;;;12.70;99.90;;;;;;5030732;28;20123;-67
2021/03/28 12:58:10;;;;;;;7.82;1.98;;;12.70;99.90;;;;;;5032377;28;20112;-67
2021/03/28 13:00:56;;;;;;;12.63;1.70;;;12.70;99.90;;;;;;5031686;28;20029;-66
2021/03/28 13:03:28;;;;;;;10.38;1.35;;;12.70;99.90;;;;;;5034672;28;20104;-67
2021/03/28 13:06:05;;;;;;;5.13;1.50;;;12.60;99.90;;;;;;5037549;28;20096;-67
2021/03/28 13:08:41;;;;;;;7.75;1.00;;;12.60;99.90;;;;;;5035937;28;20033;-66
2021/03/28 13:11:07;;;;;;;8.68;1.15;;;12.60;99.90;;;;;;5030119;28;20037;-66
2021/03/28 13:13:48;;;;;;;9.60;1.40;;;12.60;99.90;;;;;;5037138;28;20029;-64
2021/03/28 13:16:27;;;;;;;10.60;1.80;;;12.50;99.90;;;;;;5032022;28;20045;-67
2021/03/28 13:18:54;;;;;;;5.22;1.23;;;12.60;99.90;;;;;;5031585;28;20044;-67
2021/03/28 13:21:36;;;;;;;6.35;1.40;;;12.50;99.90;;;;;;5035703;28;20064;-67
2021/03/28 13:24:07;;;;;;;6.47;1.75;;;12.50;99.90;;;;;;5037136;28;20397;-69
2021/03/28 13:26:38;;;;;;;10.70;1.48;;;12.50;99.90;;;;;;5037246;28;20037;-65
2021/03/28 13:29:03;;;;;;;;;;;12.50;99.90;;;;;;5034486;28;20408;-66
2021/03/28 13:31:31;;;;;;;11.13;1.25;;;12.40;99.90;;;;;;5033093;28;19920;-66
2021/03/28 13:34:20;;;;;;;9.20;1.38;;;12.50;99.90;;;;;;5037465;28;20037;-66
2021/03/28 13:37:24;;;;;;;10.40;1.90;;;12.50;99.90;;;;;;5035353;28;20056;-66
2021/03/28 13:40:19;;;;;;;5.60;0.90;;;12.60;99.90;;;;;;5031221;28;20071;-66
2021/03/28 13:42:47;;;;;;;8.52;1.42;;;12.60;99.90;;;;;;5037176;28;20033;-66
2021/03/28 13:45:16;;;;;;;8.13;1.15;;;12.70;99.90;;;;;;5052917;28;20033;-69
2021/03/28 13:47:44;;;;;;;8.98;1.73;;;12.80;99.90;;;;;;5054648;28;20037;-67
2021/03/28 13:50:27;;;;;;;5.60;1.13;;;13.00;99.90;;;;;;5051035;28;20055;-66
2021/03/28 13:52:58;;;;;;;5.75;0.88;;;13.20;99.90;;;;;;5037883;28;20045;-65
2021/03/28 13:55:42;;;;;;;4.78;1.27;;;13.40;99.90;;;;;;5042153;28;20045;-65
2021/03/28 13:58:11;;;;;;;7.10;1.17;;;13.60;99.90;;;;;;5037337;28;20083;-65
2021/03/28 14:00:39;;;;;;;9.07;1.60;;;13.80;99.90;;;;;;5036031;28;20086;-65
2021/03/28 14:03:17;;;;;;;13.27;1.98;;;14.00;99.90;;;;;;5031420;28;20041;-65
2021/03/28 14:05:45;;;;;;;7.38;1.27;;;14.10;99.90;;;;;;5038342;28;20087;-67
2021/03/28 14:08:16;;;;;;;6.45;1.02;;;14.20;99.90;;;;;;5036283;28;20060;-67
2021/03/28 14:10:41;;;;;;;9.55;0.90;;;14.10;99.90;;;;;;5033521;28;20120;-67
2021/03/28 14:13:21;;;;;;;7.38;1.08;;;14.30;99.90;;;;;;5043123;28;20279;-67
2021/03/28 14:15:54;;;;;;;5.28;1.02;;;14.30;99.90;;;;;;5034742;28;20101;-67
2021/03/28 14:18:32;;;;;;;5.10;1.13;;;14.40;99.90;;;;;;5025661;28;20455;-67
2021/03/28 14:21:10;;;;;;;7.18;1.25;;;14.40;99.90;;;;;;5021121;28;20025;-67